Terminal Aerodrome Forecast
Issued by NWS

Home | Current Version | Previous Version | Text Only | Print | Product List | Glossary Off
Versions: 1 2 3 4 5 6 7 8 9 10 11 12 13 14 15 16 17 18 19 20 21 22 23 24 25 26 27 28 29 30 31 32 33

000
FTUS43 KLOT 270300 AAB
TAFORD
TAF AMD
KORD 270300Z 2703/2806 18007KT P6SM OVC035
     FM270400 18006KT P6SM OVC045
     FM270700 19008KT P6SM BKN020 OVC040
     FM270900 18009KT 3SM -DZRA BR BKN008 OVC012
     FM271500 23014G22KT P6SM SCT008 OVC015
     FM271800 27016G25KT P6SM BKN025
     FM280200 28010KT P6SM SCT020=

USA.gov is the U.S. government's official web portal to all federal, state and local government web resources and services.